sensor_id;sensor_type;location;lat;lon;timestamp;pressure;altitude;pressure_sealevel;temperature;humidity
3294;BME280;1659;51.470;6.770;2022-08-03T00:00:53;101339.88;;;21.34;61.77
3294;BME280;1659;51.470;6.770;2022-08-03T00:03:20;101331.97;;;21.30;61.83
3294;BME280;1659;51.470;6.770;2022-08-03T00:05:47;101331.19;;;21.28;62.01
3294;BME280;1659;51.470;6.770;2022-08-03T00:08:13;101336.72;;;21.25;62.05
3294;BME280;1659;51.470;6.770;2022-08-03T00:10:40;101328.81;;;21.22;62.14
3294;BME280;1659;51.470;6.770;2022-08-03T00:13:08;101329.88;;;21.20;62.41
3294;BME280;1659;51.470;6.770;2022-08-03T00:15:37;101333.56;;;21.17;62.35
3294;BME280;1659;51.470;6.770;2022-08-03T00:18:04;101331.84;;;21.16;62.37
3294;BME280;1659;51.470;6.770;2022-08-03T00:20:30;101344.31;;;21.17;62.50
3294;BME280;1659;51.470;6.770;2022-08-03T00:22:57;101341.41;;;21.22;62.61
3294;BME280;1659;51.470;6.770;2022-08-03T00:25:23;101340.34;;;21.24;62.64
3294;BME280;1659;51.470;6.770;2022-08-03T00:27:50;101331.50;;;21.22;62.73
3294;BME280;1659;51.470;6.770;2022-08-03T00:30:18;101331.59;;;21.21;62.66
3294;BME280;1659;51.470;6.770;2022-08-03T00:32:45;101328.03;;;21.20;62.73
3294;BME280;1659;51.470;6.770;2022-08-03T00:35:11;101335.31;;;21.18;62.88
3294;BME280;1659;51.470;6.770;2022-08-03T00:37:38;101338.16;;;21.15;62.98
3294;BME280;1659;51.470;6.770;2022-08-03T00:40:06;101333.94;;;21.11;63.08
3294;BME280;1659;51.470;6.770;2022-08-03T00:42:32;101326.88;;;21.08;63.35
3294;BME280;1659;51.470;6.770;2022-08-03T00:44:59;101331.56;;;21.05;63.43
3294;BME280;1659;51.470;6.770;2022-08-03T00:47:27;101327.31;;;21.01;63.60
3294;BME280;1659;51.470;6.770;2022-08-03T00:49:53;101326.69;;;20.96;63.63
3294;BME280;1659;51.470;6.770;2022-08-03T00:52:20;101318.84;;;20.91;63.81
3294;BME280;1659;51.470;6.770;2022-08-03T00:54:46;101326.22;;;20.87;63.87
3294;BME280;1659;51.470;6.770;2022-08-03T00:57:13;101315.69;;;20.83;64.05
3294;BME280;1659;51.470;6.770;2022-08-03T00:59:40;101321.25;;;20.80;64.18
3294;BME280;1659;51.470;6.770;2022-08-03T01:02:06;101313.44;;;20.75;64.22
3294;BME280;1659;51.470;6.770;2022-08-03T01:04:34;101317.16;;;20.72;64.46
3294;BME280;1659;51.470;6.770;2022-08-03T01:07:05;101320.09;;;20.68;64.67
3294;BME280;1659;51.470;6.770;2022-08-03T01:09:42;101316.69;;;20.64;64.65
3294;BME280;1659;51.470;6.770;2022-08-03T01:12:19;101319.44;;;20.63;64.80
3294;BME280;1659;51.470;6.770;2022-08-03T01:14:51;101316.81;;;20.61;64.78
3294;BME280;1659;51.470;6.770;2022-08-03T01:17:26;101318.78;;;20.58;64.92
3294;BME280;1659;51.470;6.770;2022-08-03T01:20:00;101310.03;;;20.54;65.18
3294;BME280;1659;51.470;6.770;2022-08-03T01:22:52;101315.47;;;20.52;65.31
3294;BME280;1659;51.470;6.770;2022-08-03T01:25:33;101312.94;;;20.49;65.26
3294;BME280;1659;51.470;6.770;2022-08-03T01:28:19;101314.75;;;20.49;65.32
3294;BME280;1659;51.470;6.770;2022-08-03T01:30:50;101317.59;;;20.46;65.36
3294;BME280;1659;51.470;6.770;2022-08-03T01:33:22;101315.09;;;20.43;65.58
3294;BME280;1659;51.470;6.770;2022-08-03T01:35:52;101315.16;;;20.41;65.59
3294;BME280;1659;51.470;6.770;2022-08-03T01:38:23;101323.28;;;20.40;65.66
3294;BME280;1659;51.470;6.770;2022-08-03T01:40:52;101313.56;;;20.37;65.91
3294;BME280;1659;51.470;6.770;2022-08-03T01:43:24;101315.53;;;20.33;65.91
3294;BME280;1659;51.470;6.770;2022-08-03T01:45:54;101315.63;;;20.32;66.21
3294;BME280;1659;51.470;6.770;2022-08-03T01:48:22;101312.06;;;20.31;66.07
3294;BME280;1659;51.470;6.770;2022-08-03T01:50:50;101308.59;;;20.29;66.33
3294;BME280;1659;51.470;6.770;2022-08-03T01:53:18;101306.84;;;20.28;66.32
3294;BME280;1659;51.470;6.770;2022-08-03T01:55:48;101300.69;;;20.26;66.37
3294;BME280;1659;51.470;6.770;2022-08-03T01:58:17;101304.34;;;20.25;66.46
3294;BME280;1659;51.470;6.770;2022-08-03T02:00:45;101306.22;;;20.23;66.71
3294;BME280;1659;51.470;6.770;2022-08-03T02:03:15;101295.56;;;20.22;66.73
3294;BME280;1659;51.470;6.770;2022-08-03T02:05:44;101293.84;;;20.21;66.75
3294;BME280;1659;51.470;6.770;2022-08-03T02:08:12;101294.78;;;20.19;67.06
3294;BME280;1659;51.470;6.770;2022-08-03T02:10:40;101297.47;;;20.19;67.19
3294;BME280;1659;51.470;6.770;2022-08-03T02:13:09;101295.66;;;20.20;67.16
3294;BME280;1659;51.470;6.770;2022-08-03T02:15:37;101299.13;;;20.22;67.14
3294;BME280;1659;51.470;6.770;2022-08-03T02:18:06;101290.13;;;20.23;67.11
3294;BME280;1659;51.470;6.770;2022-08-03T02:20:36;101303.47;;;20.25;67.22
3294;BME280;1659;51.470;6.770;2022-08-03T02:23:03;101299.91;;;20.24;67.23
3294;BME280;1659;51.470;6.770;2022-08-03T02:25:32;101299.91;;;20.24;67.28
3294;BME280;1659;51.470;6.770;2022-08-03T02:28:05;101301.75;;;20.24;67.43
3294;BME280;1659;51.470;6.770;2022-08-03T02:30:35;101306.22;;;20.23;67.52
3294;BME280;1659;51.470;6.770;2022-08-03T02:33:04;101309.88;;;20.22;67.51
3294;BME280;1659;51.470;6.770;2022-08-03T02:35:34;101303.47;;;20.25;67.56
3294;BME280;1659;51.470;6.770;2022-08-03T02:38:03;101298.88;;;20.27;67.59
3294;BME280;1659;51.470;6.770;2022-08-03T02:40:32;101304.81;;;20.33;67.57
3294;BME280;1659;51.470;6.770;2022-08-03T02:43:01;101294.78;;;20.37;67.43
3294;BME280;1659;51.470;6.770;2022-08-03T02:45:31;101298.19;;;20.41;67.38
3294;BME280;1659;51.470;6.770;2022-08-03T02:47:59;101289.97;;;20.44;67.45
3294;BME280;1659;51.470;6.770;2022-08-03T02:50:28;101292.44;;;20.48;67.38
3294;BME280;1659;51.470;6.770;2022-08-03T02:52:57;101294.06;;;20.51;67.16
3294;BME280;1659;51.470;6.770;2022-08-03T02:55:26;101287.75;;;20.52;67.25
3294;BME280;1659;51.470;6.770;2022-08-03T02:57:54;101288.47;;;20.55;67.18
3294;BME280;1659;51.470;6.770;2022-08-03T03:00:21;101285.63;;;20.59;67.06
3294;BME280;1659;51.470;6.770;2022-08-03T03:02:49;101290.03;;;20.60;67.07
3294;BME280;1659;51.470;6.770;2022-08-03T03:05:17;101289.19;;;20.59;67.21
3294;BME280;1659;51.470;6.770;2022-08-03T03:07:44;101289.25;;;20.58;67.18
3294;BME280;1659;51.470;6.770;2022-08-03T03:10:12;101292.88;;;20.56;67.24
3294;BME280;1659;51.470;6.770;2022-08-03T03:12:39;101292.97;;;20.55;67.25
3294;BME280;1659;51.470;6.770;2022-08-03T03:15:07;101294.00;;;20.52;67.35
3294;BME280;1659;51.470;6.770;2022-08-03T03:17:36;101294.06;;;20.51;67.29
3294;BME280;1659;51.470;6.770;2022-08-03T03:20:03;101289.75;;;20.48;67.42
3294;BME280;1659;51.470;6.770;2022-08-03T03:22:32;101292.50;;;20.47;67.32
3294;BME280;1659;51.470;6.770;2022-08-03T03:24:59;101288.16;;;20.44;67.56
3294;BME280;1659;51.470;6.770;2022-08-03T03:27:28;101287.28;;;20.44;67.51
3294;BME280;1659;51.470;6.770;2022-08-03T03:29:56;101290.94;;;20.43;67.61
3294;BME280;1659;51.470;6.770;2022-08-03T03:32:23;101289.13;;;20.43;67.64
3294;BME280;1659;51.470;6.770;2022-08-03T03:34:49;101291.78;;;20.43;67.88
3294;BME280;1659;51.470;6.770;2022-08-03T03:37:16;101285.56;;;20.43;67.94
3294;BME280;1659;51.470;6.770;2022-08-03T03:39:43;101295.25;;;20.45;68.10
3294;BME280;1659;51.470;6.770;2022-08-03T03:42:09;101282.78;;;20.44;68.03
3294;BME280;1659;51.470;6.770;2022-08-03T03:44:38;101289.03;;;20.45;67.96
3294;BME280;1659;51.470;6.770;2022-08-03T03:47:04;101295.34;;;20.44;68.15
3294;BME280;1659;51.470;6.770;2022-08-03T03:49:31;101290.94;;;20.43;68.12
3294;BME280;1659;51.470;6.770;2022-08-03T03:51:58;101290.81;;;20.44;68.17
3294;BME280;1659;51.470;6.770;2022-08-03T03:54:24;101294.47;;;20.43;68.22
3294;BME280;1659;51.470;6.770;2022-08-03T03:56:51;101295.34;;;20.44;68.39
3294;BME280;1659;51.470;6.770;2022-08-03T03:59:18;101296.31;;;20.43;68.36
3294;BME280;1659;51.470;6.770;2022-08-03T04:01:45;101296.38;;;20.41;68.54
3294;BME280;1659;51.470;6.770;2022-08-03T04:04:12;101289.25;;;20.40;68.52
3294;BME280;1659;51.470;6.770;2022-08-03T04:07:08;101289.41;;;20.37;68.72
3294;BME280;1659;51.470;6.770;2022-08-03T04:09:53;101284.13;;;20.35;68.67
3294;BME280;1659;51.470;6.770;2022-08-03T04:12:38;101298.59;;;20.33;68.75
3294;BME280;1659;51.470;6.770;2022-08-03T04:15:07;101288.69;;;20.33;68.65
3294;BME280;1659;51.470;6.770;2022-08-03T04:17:35;101295.91;;;20.33;68.72
3294;BME280;1659;51.470;6.770;2022-08-03T04:20:03;101285.16;;;20.33;68.67
3294;BME280;1659;51.470;6.770;2022-08-03T04:22:31;101290.53;;;20.33;68.75
3294;BME280;1659;51.470;6.770;2022-08-03T04:25:02;101298.50;;;20.34;68.75
3294;BME280;1659;51.470;6.770;2022-08-03T04:27:33;101293.06;;;20.36;68.73
3294;BME280;1659;51.470;6.770;2022-08-03T04:30:02;101302.84;;;20.37;68.56
3294;BME280;1659;51.470;6.770;2022-08-03T04:32:29;101293.84;;;20.38;68.51
3294;BME280;1659;51.470;6.770;2022-08-03T04:34:57;101286.56;;;20.40;68.53
3294;BME280;1659;51.470;6.770;2022-08-03T04:37:31;101300.72;;;20.44;68.45
3294;BME280;1659;51.470;6.770;2022-08-03T04:40:01;101300.63;;;20.45;68.35
3294;BME280;1659;51.470;6.770;2022-08-03T04:42:30;101300.47;;;20.48;68.17
3294;BME280;1659;51.470;6.770;2022-08-03T04:44:58;101301.25;;;20.50;68.14
3294;BME280;1659;51.470;6.770;2022-08-03T04:47:25;101305.59;;;20.53;68.25
3294;BME280;1659;51.470;6.770;2022-08-03T04:49:52;101309.88;;;20.57;68.17
3294;BME280;1659;51.470;6.770;2022-08-03T04:52:20;101312.41;;;20.60;68.12
3294;BME280;1659;51.470;6.770;2022-08-03T04:54:47;101307.84;;;20.62;67.95
3294;BME280;1659;51.470;6.770;2022-08-03T04:57:14;101298.75;;;20.65;68.19
3294;BME280;1659;51.470;6.770;2022-08-03T04:59:40;101301.28;;;20.68;68.09
3294;BME280;1659;51.470;6.770;2022-08-03T05:02:07;101312.72;;;20.71;68.12
3294;BME280;1659;51.470;6.770;2022-08-03T05:04:33;101304.53;;;20.74;67.87
3294;BME280;1659;51.470;6.770;2022-08-03T05:07:00;101310.59;;;20.78;67.89
3294;BME280;1659;51.470;6.770;2022-08-03T05:09:28;101311.28;;;20.82;67.93
3294;BME280;1659;51.470;6.770;2022-08-03T05:11:54;101306.63;;;20.85;67.79
3294;BME280;1659;51.470;6.770;2022-08-03T05:14:21;101307.41;;;20.87;67.86
3294;BME280;1659;51.470;6.770;2022-08-03T05:16:48;101309.84;;;20.92;67.57
3294;BME280;1659;51.470;6.770;2022-08-03T05:19:14;101309.50;;;20.98;67.55
3294;BME280;1659;51.470;6.770;2022-08-03T05:21:41;101313.59;;;21.05;67.34
3294;BME280;1659;51.470;6.770;2022-08-03T05:24:07;101311.53;;;21.10;67.24
3294;BME280;1659;51.470;6.770;2022-08-03T05:26:35;101312.00;;;21.19;66.88
3294;BME280;1659;51.470;6.770;2022-08-03T05:29:02;101319.63;;;21.26;66.77
3294;BME280;1659;51.470;6.770;2022-08-03T05:31:29;101319.13;;;21.36;66.67
3294;BME280;1659;51.470;6.770;2022-08-03T05:33:56;101318.63;;;21.45;66.60
3294;BME280;1659;51.470;6.770;2022-08-03T05:36:22;101317.28;;;21.54;66.47
3294;BME280;1659;51.470;6.770;2022-08-03T05:38:49;101316.66;;;21.64;66.38
3294;BME280;1659;51.470;6.770;2022-08-03T05:41:16;101318.66;;;21.77;66.34
3294;BME280;1659;51.470;6.770;2022-08-03T05:43:44;101318.72;;;21.91;66.25
3294;BME280;1659;51.470;6.770;2022-08-03T05:46:11;101311.50;;;22.08;65.78
3294;BME280;1659;51.470;6.770;2022-08-03T05:48:37;101317.22;;;22.33;65.41
3294;BME280;1659;51.470;6.770;2022-08-03T05:51:04;101312.91;;;23.04;63.59
3294;BME280;1659;51.470;6.770;2022-08-03T05:53:32;101313.03;;;23.87;61.64
3294;BME280;1659;51.470;6.770;2022-08-03T05:55:59;101306.31;;;24.60;59.52
3294;BME280;1659;51.470;6.770;2022-08-03T05:58:26;101319.09;;;24.84;59.15
3294;BME280;1659;51.470;6.770;2022-08-03T06:00:54;101314.72;;;25.46;57.48
3294;BME280;1659;51.470;6.770;2022-08-03T06:03:21;101308.09;;;25.87;56.70
3294;BME280;1659;51.470;6.770;2022-08-03T06:05:47;101305.63;;;26.32;55.56
3294;BME280;1659;51.470;6.770;2022-08-03T06:08:14;101305.50;;;26.80;54.56
3294;BME280;1659;51.470;6.770;2022-08-03T06:10:40;101305.66;;;27.01;53.81
3294;BME280;1659;51.470;6.770;2022-08-03T06:13:07;101310.97;;;27.14;53.31
3294;BME280;1659;51.470;6.770;2022-08-03T06:15:33;101305.78;;;27.11;53.30
3294;BME280;1659;51.470;6.770;2022-08-03T06:18:02;101310.00;;;27.49;52.54
3294;BME280;1659;51.470;6.770;2022-08-03T06:20:28;101307.66;;;27.56;52.36
3294;BME280;1659;51.470;6.770;2022-08-03T06:22:55;101306.75;;;27.66;51.97
3294;BME280;1659;51.470;6.770;2022-08-03T06:25:22;101306.19;;;27.95;51.05
3294;BME280;1659;51.470;6.770;2022-08-03T06:27:50;101312.22;;;28.31;50.52
3294;BME280;1659;51.470;6.770;2022-08-03T06:30:16;101309.53;;;28.52;50.02
3294;BME280;1659;51.470;6.770;2022-08-03T06:32:43;101317.00;;;28.81;48.80
3294;BME280;1659;51.470;6.770;2022-08-03T06:35:11;101316.59;;;29.07;48.73
3294;BME280;1659;51.470;6.770;2022-08-03T06:37:41;101324.31;;;29.32;47.73
3294;BME280;1659;51.470;6.770;2022-08-03T06:40:10;101321.25;;;29.66;47.23
3294;BME280;1659;51.470;6.770;2022-08-03T06:42:37;101319.75;;;30.03;46.34
3294;BME280;1659;51.470;6.770;2022-08-03T06:45:05;101318.34;;;29.99;46.36
3294;BME280;1659;51.470;6.770;2022-08-03T06:47:33;101323.91;;;29.78;46.83
3294;BME280;1659;51.470;6.770;2022-08-03T06:49:59;101322.16;;;29.86;46.77
3294;BME280;1659;51.470;6.770;2022-08-03T06:52:27;101321.63;;;30.12;45.77
3294;BME280;1659;51.470;6.770;2022-08-03T06:54:54;101313.63;;;30.49;45.14
3294;BME280;1659;51.470;6.770;2022-08-03T06:57:20;101316.34;;;30.40;44.88
3294;BME280;1659;51.470;6.770;2022-08-03T06:59:47;101319.59;;;29.94;45.86
3294;BME280;1659;51.470;6.770;2022-08-03T07:02:14;101318.78;;;30.23;45.14
3294;BME280;1659;51.470;6.770;2022-08-03T07:04:40;101326.38;;;30.20;44.79
3294;BME280;1659;51.470;6.770;2022-08-03T07:07:07;101319.63;;;30.24;44.48
3294;BME280;1659;51.470;6.770;2022-08-03T07:09:35;101321.91;;;30.58;44.23
3294;BME280;1659;51.470;6.770;2022-08-03T07:12:02;101326.47;;;30.77;43.61
3294;BME280;1659;51.470;6.770;2022-08-03T07:14:30;101326.63;;;31.22;43.09
3294;BME280;1659;51.470;6.770;2022-08-03T07:16:57;101322.13;;;31.31;42.67
3294;BME280;1659;51.470;6.770;2022-08-03T07:19:23;101319.63;;;31.48;42.36
3294;BME280;1659;51.470;6.770;2022-08-03T07:21:50;101328.38;;;31.79;41.76
3294;BME280;1659;51.470;6.770;2022-08-03T07:24:17;101328.66;;;32.22;41.09
3294;BME280;1659;51.470;6.770;2022-08-03T07:26:44;101324.78;;;32.50;40.72
3294;BME280;1659;51.470;6.770;2022-08-03T07:29:11;101329.63;;;32.56;40.53
3294;BME280;1659;51.470;6.770;2022-08-03T07:31:38;101333.69;;;32.52;40.39
3294;BME280;1659;51.470;6.770;2022-08-03T07:34:04;101332.84;;;32.70;40.33
3294;BME280;1659;51.470;6.770;2022-08-03T07:36:31;101330.16;;;33.12;39.86
3294;BME280;1659;51.470;6.770;2022-08-03T07:38:58;101330.47;;;33.36;38.93
3294;BME280;1659;51.470;6.770;2022-08-03T07:41:24;101337.56;;;33.46;38.68
3294;BME280;1659;51.470;6.770;2022-08-03T07:43:52;101327.72;;;33.36;38.61
3294;BME280;1659;51.470;6.770;2022-08-03T07:46:19;101330.84;;;33.41;38.48
3294;BME280;1659;51.470;6.770;2022-08-03T07:48:46;101336.91;;;33.61;38.39
3294;BME280;1659;51.470;6.770;2022-08-03T07:51:13;101330.47;;;33.86;37.93
3294;BME280;1659;51.470;6.770;2022-08-03T07:53:39;101343.41;;;34.02;37.44
3294;BME280;1659;51.470;6.770;2022-08-03T07:56:06;101337.66;;;33.79;37.67
3294;BME280;1659;51.470;6.770;2022-08-03T07:58:34;101335.09;;;33.70;37.22
3294;BME280;1659;51.470;6.770;2022-08-03T08:01:02;101330.47;;;33.70;37.39
3294;BME280;1659;51.470;6.770;2022-08-03T08:03:29;101336.66;;;33.80;36.91
3294;BME280;1659;51.470;6.770;2022-08-03T08:05:55;101334.66;;;34.15;36.52
3294;BME280;1659;51.470;6.770;2022-08-03T08:08:22;101332.25;;;34.12;36.70
3294;BME280;1659;51.470;6.770;2022-08-03T08:10:48;101328.88;;;34.51;36.14
3294;BME280;1659;51.470;6.770;2022-08-03T08:13:15;101330.22;;;34.88;35.69
3294;BME280;1659;51.470;6.770;2022-08-03T08:15:42;101335.09;;;35.26;35.41
3294;BME280;1659;51.470;6.770;2022-08-03T08:18:10;101329.94;;;35.62;34.85
3294;BME280;1659;51.470;6.770;2022-08-03T08:20:37;101331.47;;;35.65;34.38
3294;BME280;1659;51.470;6.770;2022-08-03T08:23:05;101340.16;;;35.85;34.51
3294;BME280;1659;51.470;6.770;2022-08-03T08:25:32;101343.66;;;36.02;33.83
3294;BME280;1659;51.470;6.770;2022-08-03T08:27:59;101338.69;;;35.97;34.44
3294;BME280;1659;51.470;6.770;2022-08-03T08:30:28;101334.19;;;35.73;33.82
3294;BME280;1659;51.470;6.770;2022-08-03T08:32:54;101336.78;;;35.75;33.77
3294;BME280;1659;51.470;6.770;2022-08-03T08:35:23;101336.38;;;35.86;34.00
3294;BME280;1659;51.470;6.770;2022-08-03T08:37:50;101338.69;;;35.97;33.87
3294;BME280;1659;51.470;6.770;2022-08-03T08:40:19;101334.91;;;35.98;33.42
3294;BME280;1659;51.470;6.770;2022-08-03T08:42:46;101332.81;;;35.69;33.30
3294;BME280;1659;51.470;6.770;2022-08-03T08:45:12;101331.41;;;35.42;33.80
3294;BME280;1659;51.470;6.770;2022-08-03T08:47:44;101332.19;;;35.59;33.57
3294;BME280;1659;51.470;6.770;2022-08-03T08:50:12;101329.16;;;36.08;32.83
3294;BME280;1659;51.470;6.770;2022-08-03T08:52:40;101329.41;;;35.98;32.58
3294;BME280;1659;51.470;6.770;2022-08-03T08:55:09;101331.38;;;36.13;32.85
3294;BME280;1659;51.470;6.770;2022-08-03T08:57:43;101319.09;;;36.23;32.50
3294;BME280;1659;51.470;6.770;2022-08-03T09:00:11;101327.53;;;36.22;32.50
3294;BME280;1659;51.470;6.770;2022-08-03T09:02:39;101326.72;;;36.36;31.95
3294;BME280;1659;51.470;6.770;2022-08-03T09:05:09;101320.41;;;36.51;31.88
3294;BME280;1659;51.470;6.770;2022-08-03T09:07:36;101322.78;;;36.54;31.69
3294;BME280;1659;51.470;6.770;2022-08-03T09:10:06;101317.25;;;36.54;31.60
3294;BME280;1659;51.470;6.770;2022-08-03T09:12:36;101320.13;;;36.60;31.25
3294;BME280;1659;51.470;6.770;2022-08-03T09:15:15;101321.31;;;36.43;31.71
3294;BME280;1659;51.470;6.770;2022-08-03T09:17:42;101324.34;;;36.33;31.65
3294;BME280;1659;51.470;6.770;2022-08-03T09:20:10;101325.75;;;36.67;31.13
3294;BME280;1659;51.470;6.770;2022-08-03T09:22:50;101323.72;;;36.61;30.98
3294;BME280;1659;51.470;6.770;2022-08-03T09:25:18;101331.00;;;36.39;31.24
3294;BME280;1659;51.470;6.770;2022-08-03T09:27:45;101330.72;;;36.48;31.42
3294;BME280;1659;51.470;6.770;2022-08-03T09:30:13;101327.50;;;36.83;30.79
3294;BME280;1659;51.470;6.770;2022-08-03T09:32:40;101331.59;;;37.02;30.42
3294;BME280;1659;51.470;6.770;2022-08-03T09:35:07;101327.22;;;37.08;30.48
3294;BME280;1659;51.470;6.770;2022-08-03T09:37:34;101333.50;;;37.01;30.32
3294;BME280;1659;51.470;6.770;2022-08-03T09:40:00;101332.34;;;36.81;30.36
3294;BME280;1659;51.470;6.770;2022-08-03T09:42:28;101330.38;;;36.90;30.77
3294;BME280;1659;51.470;6.770;2022-08-03T09:44:55;101333.31;;;37.03;30.11
3294;BME280;1659;51.470;6.770;2022-08-03T09:47:27;101327.69;;;37.11;30.35
3294;BME280;1659;51.470;6.770;2022-08-03T09:49:58;101329.41;;;36.97;30.02
3294;BME280;1659;51.470;6.770;2022-08-03T09:52:30;101326.00;;;36.95;30.12
3294;BME280;1659;51.470;6.770;2022-08-03T09:54:58;101330.19;;;36.91;29.73
3294;BME280;1659;51.470;6.770;2022-08-03T09:57:26;101317.25;;;36.92;29.63
3294;BME280;1659;51.470;6.770;2022-08-03T10:00:05;101326.84;;;37.11;29.39
3294;BME280;1659;51.470;6.770;2022-08-03T10:02:35;101328.84;;;37.32;29.57
3294;BME280;1659;51.470;6.770;2022-08-03T10:05:03;101318.41;;;37.27;29.35
3294;BME280;1659;51.470;6.770;2022-08-03T10:07:29;101311.56;;;37.23;29.21
3294;BME280;1659;51.470;6.770;2022-08-03T10:10:07;101319.22;;;37.42;29.05
3294;BME280;1659;51.470;6.770;2022-08-03T10:12:36;101318.03;;;37.30;28.94
3294;BME280;1659;51.470;6.770;2022-08-03T10:15:05;101317.25;;;37.36;28.67
3294;BME280;1659;51.470;6.770;2022-08-03T10:17:31;101314.09;;;37.39;28.92
3294;BME280;1659;51.470;6.770;2022-08-03T10:19:58;101313.44;;;37.52;28.79
3294;BME280;1659;51.470;6.770;2022-08-03T10:22:26;101310.94;;;37.57;28.50
3294;BME280;1659;51.470;6.770;2022-08-03T10:24:55;101307.59;;;37.62;28.70
3294;BME280;1659;51.470;6.770;2022-08-03T10:27:26;101305.16;;;37.89;28.38
3294;BME280;1659;51.470;6.770;2022-08-03T10:29:58;101307.84;;;37.82;28.45
3294;BME280;1659;51.470;6.770;2022-08-03T10:32:30;101307.69;;;37.69;28.50
3294;BME280;1659;51.470;6.770;2022-08-03T10:35:03;101302.31;;;37.31;28.62
3294;BME280;1659;51.470;6.770;2022-08-03T10:37:44;101305.88;;;37.61;28.35
3294;BME280;1659;51.470;6.770;2022-08-03T10:40:16;101294.91;;;37.83;28.20
3294;BME280;1659;51.470;6.770;2022-08-03T10:42:45;101290.81;;;38.00;27.93
3294;BME280;1659;51.470;6.770;2022-08-03T10:45:18;101290.44;;;37.82;27.94
3294;BME280;1659;51.470;6.770;2022-08-03T10:47:47;101284.94;;;37.82;27.83
3294;BME280;1659;51.470;6.770;2022-08-03T10:50:15;101293.94;;;37.90;27.86
3294;BME280;1659;51.470;6.770;2022-08-03T10:52:55;101290.69;;;38.08;27.68
3294;BME280;1659;51.470;6.770;2022-08-03T10:55:32;101288.59;;;38.10;27.39
3294;BME280;1659;51.470;6.770;2022-08-03T10:58:45;101281.50;;;37.79;27.50
3294;BME280;1659;51.470;6.770;2022-08-03T11:01:12;101277.22;;;37.98;27.74
3294;BME280;1659;51.470;6.770;2022-08-03T11:04:15;101277.94;;;38.07;27.59
3294;BME280;1659;51.470;6.770;2022-08-03T11:06:43;101272.22;;;38.30;27.30
3294;BME280;1659;51.470;6.770;2022-08-03T11:09:15;101265.53;;;38.68;26.93
3294;BME280;1659;51.470;6.770;2022-08-03T11:11:43;101262.78;;;39.03;26.70
3294;BME280;1659;51.470;6.770;2022-08-03T11:14:11;101270.06;;;39.17;26.69
3294;BME280;1659;51.470;6.770;2022-08-03T11:16:41;101274.06;;;39.08;26.78
3294;BME280;1659;51.470;6.770;2022-08-03T11:19:12;101270.94;;;38.89;26.65
3294;BME280;1659;51.470;6.770;2022-08-03T11:21:55;101263.34;;;38.98;26.46
3294;BME280;1659;51.470;6.770;2022-08-03T11:24:55;101272.13;;;39.08;26.48
3294;BME280;1659;51.470;6.770;2022-08-03T11:27:23;101263.53;;;38.97;26.79
3294;BME280;1659;51.470;6.770;2022-08-03T11:29:55;101267.94;;;38.84;26.40
3294;BME280;1659;51.470;6.770;2022-08-03T11:32:50;101267.44;;;38.67;26.39
3294;BME280;1659;51.470;6.770;2022-08-03T11:35:20;101253.88;;;38.72;26.40
3294;BME280;1659;51.470;6.770;2022-08-03T11:38:02;101266.44;;;38.82;26.28
3294;BME280;1659;51.470;6.770;2022-08-03T11:40:40;101253.53;;;38.89;26.08
3294;BME280;1659;51.470;6.770;2022-08-03T11:43:09;101248.53;;;39.13;25.94
3294;BME280;1659;51.470;6.770;2022-08-03T11:45:37;101259.63;;;39.19;25.84
3294;BME280;1659;51.470;6.770;2022-08-03T11:48:13;101247.41;;;38.94;26.01
3294;BME280;1659;51.470;6.770;2022-08-03T11:50:42;101248.31;;;38.66;26.37
3294;BME280;1659;51.470;6.770;2022-08-03T11:53:14;101257.28;;;38.75;26.28
3294;BME280;1659;51.470;6.770;2022-08-03T11:55:42;101244.53;;;38.45;26.11
3294;BME280;1659;51.470;6.770;2022-08-03T11:58:17;101253.53;;;37.83;26.76
3294;BME280;1659;51.470;6.770;2022-08-03T12:00:43;101250.63;;;37.91;26.64
3294;BME280;1659;51.470;6.770;2022-08-03T12:03:11;101254.31;;;37.98;26.79
3294;BME280;1659;51.470;6.770;2022-08-03T12:05:43;101249.56;;;37.92;26.86
3294;BME280;1659;51.470;6.770;2022-08-03T12:08:11;101255.94;;;37.71;26.81
3294;BME280;1659;51.470;6.770;2022-08-03T12:10:39;101245.16;;;37.54;27.19
3294;BME280;1659;51.470;6.770;2022-08-03T12:13:06;101244.13;;;37.55;27.19
3294;BME280;1659;51.470;6.770;2022-08-03T12:15:35;101240.22;;;37.50;27.10
3294;BME280;1659;51.470;6.770;2022-08-03T12:18:10;101249.88;;;37.60;26.95
3294;BME280;1659;51.470;6.770;2022-08-03T12:20:38;101246.44;;;37.73;26.83
3294;BME280;1659;51.470;6.770;2022-08-03T12:23:06;101234.41;;;38.03;26.18
3294;BME280;1659;51.470;6.770;2022-08-03T12:25:35;101231.25;;;38.27;26.15
3294;BME280;1659;51.470;6.770;2022-08-03T12:28:08;101230.56;;;38.88;25.77
3294;BME280;1659;51.470;6.770;2022-08-03T12:30:35;101230.00;;;39.55;25.17
3294;BME280;1659;51.470;6.770;2022-08-03T12:33:17;101223.38;;;39.49;24.87
3294;BME280;1659;51.470;6.770;2022-08-03T12:35:46;101229.56;;;39.58;24.90
3294;BME280;1659;51.470;6.770;2022-08-03T12:38:18;101219.81;;;39.89;24.69
3294;BME280;1659;51.470;6.770;2022-08-03T12:40:58;101223.91;;;40.06;24.46
3294;BME280;1659;51.470;6.770;2022-08-03T12:43:25;101227.09;;;40.36;24.44
3294;BME280;1659;51.470;6.770;2022-08-03T12:46:15;101228.53;;;40.66;23.83
3294;BME280;1659;51.470;6.770;2022-08-03T12:49:00;101218.13;;;40.54;23.70
3294;BME280;1659;51.470;6.770;2022-08-03T12:51:28;101224.94;;;40.38;24.22
3294;BME280;1659;51.470;6.770;2022-08-03T12:53:57;101221.97;;;40.40;23.69
3294;BME280;1659;51.470;6.770;2022-08-03T12:56:24;101222.19;;;40.38;23.94
3294;BME280;1659;51.470;6.770;2022-08-03T12:58:50;101220.72;;;40.16;23.57
3294;BME280;1659;51.470;6.770;2022-08-03T13:01:18;101210.03;;;39.73;23.33
3294;BME280;1659;51.470;6.770;2022-08-03T13:03:48;101210.75;;;39.26;23.87
3294;BME280;1659;51.470;6.770;2022-08-03T13:06:16;101219.00;;;39.13;23.67
3294;BME280;1659;51.470;6.770;2022-08-03T13:08:43;101216.28;;;38.78;24.08
3294;BME280;1659;51.470;6.770;2022-08-03T13:11:21;101213.94;;;38.75;24.31
3294;BME280;1659;51.470;6.770;2022-08-03T13:13:48;101205.88;;;38.80;24.34
3294;BME280;1659;51.470;6.770;2022-08-03T13:16:15;101211.31;;;38.67;24.62
3294;BME280;1659;51.470;6.770;2022-08-03T13:18:41;101214.59;;;38.49;24.83
3294;BME280;1659;51.470;6.770;2022-08-03T13:21:11;101209.41;;;38.39;24.86